sensor_id;sensor_type;location;lat;lon;timestamp;pressure;altitude;pressure_sealevel;temperature;humidity
68855;BME280;69984;-43.570;172.580;2023-10-09T00:02:03;100130.56;;;17.86;59.12
68855;BME280;69984;-43.570;172.580;2023-10-09T00:04:33;100129.53;;;17.48;58.38
68855;BME280;69984;-43.570;172.580;2023-10-09T00:07:03;100131.38;;;17.74;57.88
68855;BME280;69984;-43.570;172.580;2023-10-09T00:09:37;100123.03;;;17.83;58.08
68855;BME280;69984;-43.570;172.580;2023-10-09T00:12:20;100126.63;;;18.02;55.42
68855;BME280;69984;-43.570;172.580;2023-10-09T00:14:52;100119.03;;;18.25;53.87
68855;BME280;69984;-43.570;172.580;2023-10-09T00:17:22;100108.81;;;18.35;54.76
68855;BME280;69984;-43.570;172.580;2023-10-09T00:19:50;100122.22;;;18.47;56.06
68855;BME280;69984;-43.570;172.580;2023-10-09T00:22:18;100109.22;;;18.32;56.95
68855;BME280;69984;-43.570;172.580;2023-10-09T00:24:57;100116.25;;;18.01;57.59
68855;BME280;69984;-43.570;172.580;2023-10-09T00:27:43;100098.13;;;17.84;57.43
68855;BME280;69984;-43.570;172.580;2023-10-09T00:30:16;100091.94;;;18.10;55.76
68855;BME280;69984;-43.570;172.580;2023-10-09T00:32:48;100093.16;;;18.65;55.04
68855;BME280;69984;-43.570;172.580;2023-10-09T00:35:37;100088.59;;;18.85;54.90
68855;BME280;69984;-43.570;172.580;2023-10-09T00:38:10;100084.69;;;18.88;54.53
68855;BME280;69984;-43.570;172.580;2023-10-09T00:40:47;100070.63;;;18.81;55.33
68855;BME280;69984;-43.570;172.580;2023-10-09T00:43:23;100069.16;;;18.85;55.08
68855;BME280;69984;-43.570;172.580;2023-10-09T00:45:55;100068.22;;;18.73;55.66
68855;BME280;69984;-43.570;172.580;2023-10-09T00:48:26;100068.31;;;18.91;53.38
68855;BME280;69984;-43.570;172.580;2023-10-09T00:51:04;100065.19;;;18.18;54.91
68855;BME280;69984;-43.570;172.580;2023-10-09T00:53:48;100059.38;;;18.41;56.07
68855;BME280;69984;-43.570;172.580;2023-10-09T00:56:20;100061.22;;;18.85;55.24
68855;BME280;69984;-43.570;172.580;2023-10-09T00:58:57;100044.31;;;18.73;56.92
68855;BME280;69984;-43.570;172.580;2023-10-09T01:01:42;100037.41;;;19.21;54.22
68855;BME280;69984;-43.570;172.580;2023-10-09T01:04:25;100045.63;;;19.44;55.21
68855;BME280;69984;-43.570;172.580;2023-10-09T01:06:55;100042.47;;;19.29;54.26
68855;BME280;69984;-43.570;172.580;2023-10-09T01:09:37;100042.34;;;19.85;53.52
68855;BME280;69984;-43.570;172.580;2023-10-09T01:12:05;100028.69;;;20.36;52.58
68855;BME280;69984;-43.570;172.580;2023-10-09T01:14:32;100025.28;;;20.11;51.06
68855;BME280;69984;-43.570;172.580;2023-10-09T01:17:06;100019.88;;;20.36;51.44
68855;BME280;69984;-43.570;172.580;2023-10-09T01:19:38;100023.94;;;20.38;50.59
68855;BME280;69984;-43.570;172.580;2023-10-09T01:22:05;100023.84;;;20.27;50.44
68855;BME280;69984;-43.570;172.580;2023-10-09T01:24:42;100012.44;;;20.08;48.21
68855;BME280;69984;-43.570;172.580;2023-10-09T01:27:09;100010.13;;;19.32;50.51
68855;BME280;69984;-43.570;172.580;2023-10-09T01:29:43;100016.50;;;19.74;52.92
68855;BME280;69984;-43.570;172.580;2023-10-09T01:32:12;100005.78;;;19.99;52.40
68855;BME280;69984;-43.570;172.580;2023-10-09T01:34:45;100003.72;;;20.01;51.19
68855;BME280;69984;-43.570;172.580;2023-10-09T01:37:20;99987.84;;;20.24;51.67
68855;BME280;69984;-43.570;172.580;2023-10-09T01:39:58;99997.63;;;20.60;49.92
68855;BME280;69984;-43.570;172.580;2023-10-09T01:42:42;99989.00;;;21.00;52.12
68855;BME280;69984;-43.570;172.580;2023-10-09T01:45:12;99981.94;;;21.05;50.79
68855;BME280;69984;-43.570;172.580;2023-10-09T01:48:00;99978.03;;;21.31;48.03
68855;BME280;69984;-43.570;172.580;2023-10-09T01:50:31;99977.84;;;21.84;47.97
68855;BME280;69984;-43.570;172.580;2023-10-09T01:53:04;99982.78;;;21.29;47.92
68855;BME280;69984;-43.570;172.580;2023-10-09T01:55:34;99979.06;;;21.53;46.55
68855;BME280;69984;-43.570;172.580;2023-10-09T01:58:08;99972.03;;;21.99;47.04
68855;BME280;69984;-43.570;172.580;2023-10-09T02:00:51;99960.75;;;21.45;47.61
68855;BME280;69984;-43.570;172.580;2023-10-09T02:03:22;99963.44;;;21.45;47.04
68855;BME280;69984;-43.570;172.580;2023-10-09T02:05:55;99954.94;;;21.48;48.34
68855;BME280;69984;-43.570;172.580;2023-10-09T02:08:31;99942.28;;;22.07;47.63
68855;BME280;69984;-43.570;172.580;2023-10-09T02:11:02;99944.41;;;22.50;46.87
68855;BME280;69984;-43.570;172.580;2023-10-09T02:13:30;99944.53;;;21.98;47.39
68855;BME280;69984;-43.570;172.580;2023-10-09T02:16:01;99940.69;;;22.51;47.00
68855;BME280;69984;-43.570;172.580;2023-10-09T02:18:41;99937.41;;;22.94;45.19
68855;BME280;69984;-43.570;172.580;2023-10-09T02:21:25;99941.81;;;23.21;43.38
68855;BME280;69984;-43.570;172.580;2023-10-09T02:24:21;99933.84;;;22.88;44.06
68855;BME280;69984;-43.570;172.580;2023-10-09T02:27:06;99934.13;;;23.85;43.26
68855;BME280;69984;-43.570;172.580;2023-10-09T02:29:33;99935.75;;;23.64;43.65
68855;BME280;69984;-43.570;172.580;2023-10-09T02:32:05;99930.94;;;23.28;43.25
68855;BME280;69984;-43.570;172.580;2023-10-09T02:39:48;99935.59;;;23.98;42.75
68855;BME280;69984;-43.570;172.580;2023-10-09T02:42:15;99935.88;;;24.23;42.28
68855;BME280;69984;-43.570;172.580;2023-10-09T02:44:42;99920.50;;;24.72;40.90
68855;BME280;69984;-43.570;172.580;2023-10-09T02:47:21;99931.47;;;25.02;40.90
68855;BME280;69984;-43.570;172.580;2023-10-09T02:49:57;99923.19;;;25.09;39.42
68855;BME280;69984;-43.570;172.580;2023-10-09T02:52:33;99916.69;;;24.63;40.98
68855;BME280;69984;-43.570;172.580;2023-10-09T02:55:20;99919.56;;;24.83;40.42
68855;BME280;69984;-43.570;172.580;2023-10-09T02:57:53;99913.69;;;23.19;43.45
68855;BME280;69984;-43.570;172.580;2023-10-09T03:00:32;99914.25;;;24.08;41.45
68855;BME280;69984;-43.570;172.580;2023-10-09T03:03:03;99919.72;;;23.69;42.15
68855;BME280;69984;-43.570;172.580;2023-10-09T03:05:33;99918.75;;;24.24;40.08
68855;BME280;69984;-43.570;172.580;2023-10-09T03:08:00;99913.03;;;25.11;40.07
68855;BME280;69984;-43.570;172.580;2023-10-09T03:10:28;99909.44;;;24.95;40.00
68855;BME280;69984;-43.570;172.580;2023-10-09T03:12:55;99907.44;;;25.79;39.24
68855;BME280;69984;-43.570;172.580;2023-10-09T03:15:26;99904.84;;;25.38;38.12
68855;BME280;69984;-43.570;172.580;2023-10-09T03:17:55;99900.97;;;24.76;38.52
68855;BME280;69984;-43.570;172.580;2023-10-09T03:20:22;99908.03;;;24.88;39.62
68855;BME280;69984;-43.570;172.580;2023-10-09T03:22:49;99914.19;;;24.83;39.88
68855;BME280;69984;-43.570;172.580;2023-10-09T03:25:16;99913.66;;;24.86;38.95
68855;BME280;69984;-43.570;172.580;2023-10-09T03:27:44;99905.72;;;24.11;41.01
68855;BME280;69984;-43.570;172.580;2023-10-09T03:32:49;99901.97;;;25.02;40.01
68855;BME280;69984;-43.570;172.580;2023-10-09T03:35:21;99910.63;;;25.66;37.62
68855;BME280;69984;-43.570;172.580;2023-10-09T03:37:57;99909.81;;;25.14;36.38
68855;BME280;69984;-43.570;172.580;2023-10-09T03:40:27;99901.53;;;25.77;37.51
68855;BME280;69984;-43.570;172.580;2023-10-09T03:42:54;99903.06;;;25.53;36.52
68855;BME280;69984;-43.570;172.580;2023-10-09T03:45:21;99907.75;;;25.93;37.17
68855;BME280;69984;-43.570;172.580;2023-10-09T03:47:55;99907.59;;;26.30;37.67
68855;BME280;69984;-43.570;172.580;2023-10-09T03:50:35;99908.94;;;26.53;36.28
68855;BME280;69984;-43.570;172.580;2023-10-09T03:53:04;99914.59;;;26.41;35.94
68855;BME280;69984;-43.570;172.580;2023-10-09T03:55:38;99911.00;;;25.95;34.90
68855;BME280;69984;-43.570;172.580;2023-10-09T03:58:06;99915.44;;;24.44;37.25
68855;BME280;69984;-43.570;172.580;2023-10-09T04:00:38;99912.06;;;24.26;38.77
68855;BME280;69984;-43.570;172.580;2023-10-09T04:03:22;99895.34;;;25.20;38.70
68855;BME280;69984;-43.570;172.580;2023-10-09T04:05:51;99892.44;;;25.89;37.96
68855;BME280;69984;-43.570;172.580;2023-10-09T04:08:19;99890.88;;;26.03;35.92
68855;BME280;69984;-43.570;172.580;2023-10-09T04:10:46;99873.44;;;26.86;34.82
68855;BME280;69984;-43.570;172.580;2023-10-09T04:13:19;99879.84;;;26.04;35.81
68855;BME280;69984;-43.570;172.580;2023-10-09T04:15:51;99883.22;;;25.07;37.06
68855;BME280;69984;-43.570;172.580;2023-10-09T04:18:21;99885.72;;;24.45;38.27
68855;BME280;69984;-43.570;172.580;2023-10-09T04:20:54;99882.88;;;25.46;37.23
68855;BME280;69984;-43.570;172.580;2023-10-09T04:23:42;99871.78;;;26.14;36.50
68855;BME280;69984;-43.570;172.580;2023-10-09T04:26:47;99872.78;;;25.63;36.38
68855;BME280;69984;-43.570;172.580;2023-10-09T04:29:16;99873.44;;;24.86;37.68
68855;BME280;69984;-43.570;172.580;2023-10-09T04:32:05;99884.63;;;23.66;39.53
68855;BME280;69984;-43.570;172.580;2023-10-09T04:34:42;99881.84;;;22.62;41.68
68855;BME280;69984;-43.570;172.580;2023-10-09T04:37:16;99880.75;;;21.57;44.52
68855;BME280;69984;-43.570;172.580;2023-10-09T04:40:08;99879.53;;;21.24;45.87
68855;BME280;69984;-43.570;172.580;2023-10-09T04:42:41;99880.31;;;22.83;44.70
68855;BME280;69984;-43.570;172.580;2023-10-09T04:45:24;99885.22;;;22.91;41.81
68855;BME280;69984;-43.570;172.580;2023-10-09T04:48:09;99881.31;;;24.07;40.04
68855;BME280;69984;-43.570;172.580;2023-10-09T04:50:37;99882.88;;;25.46;38.25
68855;BME280;69984;-43.570;172.580;2023-10-09T04:53:24;99879.38;;;26.32;36.04
68855;BME280;69984;-43.570;172.580;2023-10-09T04:55:51;99884.84;;;25.60;35.60
68855;BME280;69984;-43.570;172.580;2023-10-09T04:58:25;99880.31;;;25.76;36.74
68855;BME280;69984;-43.570;172.580;2023-10-09T05:00:55;99881.66;;;27.30;33.57
68855;BME280;69984;-43.570;172.580;2023-10-09T05:03:25;99888.53;;;28.83;31.40
68855;BME280;69984;-43.570;172.580;2023-10-09T05:06:05;99876.44;;;29.52;29.81
68855;BME280;69984;-43.570;172.580;2023-10-09T05:08:50;99875.28;;;30.33;28.88
68855;BME280;69984;-43.570;172.580;2023-10-09T05:11:22;99884.50;;;30.50;28.24
68855;BME280;69984;-43.570;172.580;2023-10-09T05:14:22;99892.44;;;29.91;28.84
68855;BME280;69984;-43.570;172.580;2023-10-09T05:17:05;99896.03;;;30.56;27.38
68855;BME280;69984;-43.570;172.580;2023-10-09T05:19:33;99880.50;;;29.31;29.05
68855;BME280;69984;-43.570;172.580;2023-10-09T05:22:21;99880.50;;;29.49;29.07
68855;BME280;69984;-43.570;172.580;2023-10-09T05:25:17;99888.13;;;28.66;30.08
68855;BME280;69984;-43.570;172.580;2023-10-09T05:28:04;99876.97;;;28.05;30.68
68855;BME280;69984;-43.570;172.580;2023-10-09T05:30:52;99878.31;;;28.80;30.02
68855;BME280;69984;-43.570;172.580;2023-10-09T05:33:36;99878.13;;;30.22;26.67
68855;BME280;69984;-43.570;172.580;2023-10-09T05:36:05;99882.28;;;30.52;26.39
68855;BME280;69984;-43.570;172.580;2023-10-09T05:38:53;99879.19;;;29.89;27.39
68855;BME280;69984;-43.570;172.580;2023-10-09T05:41:45;99875.41;;;29.66;28.57
68855;BME280;69984;-43.570;172.580;2023-10-09T05:44:18;99890.03;;;27.88;31.77
68855;BME280;69984;-43.570;172.580;2023-10-09T05:47:04;99879.81;;;27.85;31.04
68855;BME280;69984;-43.570;172.580;2023-10-09T05:49:57;99880.47;;;28.05;30.52
68855;BME280;69984;-43.570;172.580;2023-10-09T05:52:39;99879.47;;;27.96;30.89
68855;BME280;69984;-43.570;172.580;2023-10-09T05:55:07;99879.34;;;26.98;31.31
68855;BME280;69984;-43.570;172.580;2023-10-09T05:57:52;99867.97;;;25.80;34.99
68855;BME280;69984;-43.570;172.580;2023-10-09T06:00:26;99880.75;;;24.96;36.47
68855;BME280;69984;-43.570;172.580;2023-10-09T06:03:11;99874.31;;;23.53;38.54
68855;BME280;69984;-43.570;172.580;2023-10-09T06:05:55;99879.13;;;23.34;38.91
68855;BME280;69984;-43.570;172.580;2023-10-09T06:08:30;99881.66;;;22.52;40.18
68855;BME280;69984;-43.570;172.580;2023-10-09T06:11:13;99873.75;;;21.27;42.63
68855;BME280;69984;-43.570;172.580;2023-10-09T06:14:00;99873.63;;;20.64;43.79
68855;BME280;69984;-43.570;172.580;2023-10-09T06:16:38;99869.38;;;19.62;46.05
68855;BME280;69984;-43.570;172.580;2023-10-09T06:19:13;99876.13;;;19.94;46.24
68855;BME280;69984;-43.570;172.580;2023-10-09T06:21:46;99866.66;;;20.10;45.89
68855;BME280;69984;-43.570;172.580;2023-10-09T06:24:20;99878.81;;;20.59;44.43
68855;BME280;69984;-43.570;172.580;2023-10-09T06:26:50;99866.63;;;20.28;45.22
68855;BME280;69984;-43.570;172.580;2023-10-09T06:29:39;99879.34;;;19.30;48.03
68855;BME280;69984;-43.570;172.580;2023-10-09T06:32:16;99877.06;;;18.73;49.25
68855;BME280;69984;-43.570;172.580;2023-10-09T06:35:00;99880.28;;;18.57;49.59
68855;BME280;69984;-43.570;172.580;2023-10-09T06:37:48;99868.44;;;17.96;50.77
68855;BME280;69984;-43.570;172.580;2023-10-09T06:40:39;99868.28;;;17.40;52.69
68855;BME280;69984;-43.570;172.580;2023-10-09T06:43:23;99874.31;;;17.54;52.62
68855;BME280;69984;-43.570;172.580;2023-10-09T06:45:54;99878.28;;;17.32;52.21
68855;BME280;69984;-43.570;172.580;2023-10-09T06:48:24;99883.25;;;17.02;53.72
68855;BME280;69984;-43.570;172.580;2023-10-09T06:51:18;99872.50;;;16.77;55.32
68855;BME280;69984;-43.570;172.580;2023-10-09T06:53:57;99877.34;;;16.47;56.96
68855;BME280;69984;-43.570;172.580;2023-10-09T06:56:33;99880.63;;;16.63;57.52
68855;BME280;69984;-43.570;172.580;2023-10-09T06:59:01;99878.75;;;16.43;58.13
68855;BME280;69984;-43.570;172.580;2023-10-09T07:01:52;99882.44;;;16.36;58.79
68855;BME280;69984;-43.570;172.580;2023-10-09T07:04:37;99890.19;;;16.57;58.35
68855;BME280;69984;-43.570;172.580;2023-10-09T07:07:05;99889.59;;;16.62;58.25
68855;BME280;69984;-43.570;172.580;2023-10-09T07:09:39;99882.22;;;16.44;58.75
68855;BME280;69984;-43.570;172.580;2023-10-09T07:12:09;99888.13;;;16.26;58.45
68855;BME280;69984;-43.570;172.580;2023-10-09T07:14:40;99891.72;;;15.92;59.46
68855;BME280;69984;-43.570;172.580;2023-10-09T07:17:28;99904.06;;;15.72;59.96
68855;BME280;69984;-43.570;172.580;2023-10-09T07:20:01;99907.00;;;15.97;59.09
68855;BME280;69984;-43.570;172.580;2023-10-09T07:23:00;99902.06;;;15.87;59.30
68855;BME280;69984;-43.570;172.580;2023-10-09T07:25:44;99901.91;;;15.48;59.68
68855;BME280;69984;-43.570;172.580;2023-10-09T07:28:23;99909.06;;;15.20;60.41
68855;BME280;69984;-43.570;172.580;2023-10-09T07:31:03;99905.03;;;14.96;61.91
68855;BME280;69984;-43.570;172.580;2023-10-09T07:33:35;99909.75;;;14.73;63.56
68855;BME280;69984;-43.570;172.580;2023-10-09T07:36:20;99908.78;;;14.80;64.33
68855;BME280;69984;-43.570;172.580;2023-10-09T07:39:02;99906.28;;;14.72;63.25
68855;BME280;69984;-43.570;172.580;2023-10-09T07:41:32;99908.44;;;14.62;63.50
68855;BME280;69984;-43.570;172.580;2023-10-09T07:44:00;99905.38;;;14.59;62.96
68855;BME280;69984;-43.570;172.580;2023-10-09T07:46:45;99905.56;;;14.36;64.18
68855;BME280;69984;-43.570;172.580;2023-10-09T07:49:35;99901.31;;;13.99;64.72
68855;BME280;69984;-43.570;172.580;2023-10-09T07:52:03;99906.72;;;13.76;65.74
68855;BME280;69984;-43.570;172.580;2023-10-09T07:54:32;99916.66;;;13.74;65.11
68855;BME280;69984;-43.570;172.580;2023-10-09T07:56:59;99910.94;;;13.41;65.04
68855;BME280;69984;-43.570;172.580;2023-10-09T07:59:43;99914.84;;;13.16;65.65
68855;BME280;69984;-43.570;172.580;2023-10-09T08:02:30;99922.50;;;13.26;65.37
68855;BME280;69984;-43.570;172.580;2023-10-09T08:05:01;99931.75;;;13.22;63.59
68855;BME280;69984;-43.570;172.580;2023-10-09T08:07:46;99929.84;;;13.30;63.56
68855;BME280;69984;-43.570;172.580;2023-10-09T08:10:42;99926.50;;;13.22;63.73
68855;BME280;69984;-43.570;172.580;2023-10-09T08:13:29;99927.91;;;13.10;65.50
68855;BME280;69984;-43.570;172.580;2023-10-09T08:16:19;99938.00;;;13.35;64.19
68855;BME280;69984;-43.570;172.580;2023-10-09T08:18:50;99931.94;;;13.49;63.77
68855;BME280;69984;-43.570;172.580;2023-10-09T08:21:19;99928.25;;;13.80;61.28
68855;BME280;69984;-43.570;172.580;2023-10-09T08:24:08;99933.19;;;13.68;61.17
68855;BME280;69984;-43.570;172.580;2023-10-09T08:26:55;99925.13;;;13.91;59.75
68855;BME280;69984;-43.570;172.580;2023-10-09T08:29:42;99935.38;;;13.65;60.11
68855;BME280;69984;-43.570;172.580;2023-10-09T08:32:13;99930.56;;;13.24;60.14
68855;BME280;69984;-43.570;172.580;2023-10-09T08:35:06;99935.47;;;13.57;60.07
68855;BME280;69984;-43.570;172.580;2023-10-09T08:37:53;99943.63;;;13.32;60.62
68855;BME280;69984;-43.570;172.580;2023-10-09T08:40:20;99945.25;;;13.48;60.27
68855;BME280;69984;-43.570;172.580;2023-10-09T08:42:54;99933.19;;;13.24;60.42
68855;BME280;69984;-43.570;172.580;2023-10-09T08:45:22;99931.03;;;13.57;59.16
68855;BME280;69984;-43.570;172.580;2023-10-09T08:47:54;99930.38;;;13.55;58.92
68855;BME280;69984;-43.570;172.580;2023-10-09T08:50:21;99928.47;;;13.34;59.17
68855;BME280;69984;-43.570;172.580;2023-10-09T08:52:49;99936.09;;;13.15;58.27
68855;BME280;69984;-43.570;172.580;2023-10-09T08:55:17;99945.91;;;13.35;57.21
68855;BME280;69984;-43.570;172.580;2023-10-09T08:57:45;99940.56;;;13.43;55.15
68855;BME280;69984;-43.570;172.580;2023-10-09T09:00:19;99932.09;;;13.48;54.21
68855;BME280;69984;-43.570;172.580;2023-10-09T09:02:56;99941.56;;;13.42;55.24
68855;BME280;69984;-43.570;172.580;2023-10-09T09:05:23;99938.63;;;13.37;54.10
68855;BME280;69984;-43.570;172.580;2023-10-09T09:07:51;99939.47;;;13.52;54.71
68855;BME280;69984;-43.570;172.580;2023-10-09T09:10:31;99941.34;;;13.73;49.57
68855;BME280;69984;-43.570;172.580;2023-10-09T09:13:16;99951.97;;;14.16;48.84
68855;BME280;69984;-43.570;172.580;2023-10-09T09:15:47;99929.56;;;14.05;50.77
68855;BME280;69984;-43.570;172.580;2023-10-09T09:18:14;99950.94;;;13.95;49.28
68855;BME280;69984;-43.570;172.580;2023-10-09T09:20:44;99945.19;;;14.42;45.91
68855;BME280;69984;-43.570;172.580;2023-10-09T09:23:17;99938.84;;;14.86;43.79
68855;BME280;69984;-43.570;172.580;2023-10-09T09:25:50;99933.13;;;15.10;43.15
68855;BME280;69984;-43.570;172.580;2023-10-09T09:28:25;99934.25;;;15.22;43.30
68855;BME280;69984;-43.570;172.580;2023-10-09T09:31:08;99923.69;;;15.22;43.13
68855;BME280;69984;-43.570;172.580;2023-10-09T09:33:40;99922.91;;;15.28;42.27
68855;BME280;69984;-43.570;172.580;2023-10-09T09:36:09;99922.88;;;15.22;42.95
68855;BME280;69984;-43.570;172.580;2023-10-09T09:38:39;99917.56;;;15.15;42.88
68855;BME280;69984;-43.570;172.580;2023-10-09T09:41:15;99924.72;;;15.28;42.25
68855;BME280;69984;-43.570;172.580;2023-10-09T09:43:53;99919.88;;;15.31;42.43
68855;BME280;69984;-43.570;172.580;2023-10-09T09:46:33;99928.66;;;15.38;42.50
68855;BME280;69984;-43.570;172.580;2023-10-09T09:49:05;99924.34;;;15.31;42.38
68855;BME280;69984;-43.570;172.580;2023-10-09T09:51:43;99928.41;;;15.27;41.81
68855;BME280;69984;-43.570;172.580;2023-10-09T09:54:16;99930.44;;;15.31;42.67
68855;BME280;69984;-43.570;172.580;2023-10-09T09:56:46;99929.84;;;15.36;41.79
68855;BME280;69984;-43.570;172.580;2023-10-09T09:59:19;99923.03;;;15.48;41.38
68855;BME280;69984;-43.570;172.580;2023-10-09T10:01:58;99931.31;;;15.45;40.81
68855;BME280;69984;-43.570;172.580;2023-10-09T10:04:35;99941.25;;;15.36;41.48
68855;BME280;69984;-43.570;172.580;2023-10-09T10:07:06;99940.59;;;15.34;41.39
68855;BME280;69984;-43.570;172.580;2023-10-09T10:09:42;99941.66;;;15.40;41.63
68855;BME280;69984;-43.570;172.580;2023-10-09T10:12:11;99935.50;;;15.26;42.29
68855;BME280;69984;-43.570;172.580;2023-10-09T10:14:59;99925.66;;;15.14;43.96
68855;BME280;69984;-43.570;172.580;2023-10-09T10:18:06;99933.03;;;14.69;45.75
68855;BME280;69984;-43.570;172.580;2023-10-09T10:21:14;99936.09;;;14.45;47.14
68855;BME280;69984;-43.570;172.580;2023-10-09T10:23:45;99932.53;;;13.81;49.76
68855;BME280;69984;-43.570;172.580;2023-10-09T10:26:21;99926.75;;;13.56;50.79
68855;BME280;69984;-43.570;172.580;2023-10-09T10:29:19;99925.00;;;13.63;50.66
68855;BME280;69984;-43.570;172.580;2023-10-09T10:34:52;99930.81;;;13.59;50.89
68855;BME280;69984;-43.570;172.580;2023-10-09T10:37:39;99924.56;;;13.45;51.70
68855;BME280;69984;-43.570;172.580;2023-10-09T10:40:27;99927.69;;;13.19;52.65
68855;BME280;69984;-43.570;172.580;2023-10-09T10:43:27;99927.22;;;13.16;53.13
68855;BME280;69984;-43.570;172.580;2023-10-09T10:46:12;99916.28;;;13.04;52.76
68855;BME280;69984;-43.570;172.580;2023-10-09T10:49:11;99918.31;;;13.17;52.26
68855;BME280;69984;-43.570;172.580;2023-10-09T10:51:38;99922.59;;;13.32;50.91
68855;BME280;69984;-43.570;172.580;2023-10-09T10:54:07;99909.22;;;13.48;50.80
68855;BME280;69984;-43.570;172.580;2023-10-09T10:57:21;99917.41;;;13.24;53.59
68855;BME280;69984;-43.570;172.580;2023-10-09T11:00:14;99919.94;;;13.18;51.03
68855;BME280;69984;-43.570;172.580;2023-10-09T11:02:59;99918.56;;;13.51;49.12
68855;BME280;69984;-43.570;172.580;2023-10-09T11:05:46;99914.63;;;13.76;48.51
68855;BME280;69984;-43.570;172.580;2023-10-09T11:08:25;99909.09;;;13.86;48.75
68855;BME280;69984;-43.570;172.580;2023-10-09T11:11:12;99903.09;;;13.77;48.14
68855;BME280;69984;-43.570;172.580;2023-10-09T11:13:42;99911.34;;;13.89;47.97
68855;BME280;69984;-43.570;172.580;2023-10-09T11:16:38;99910.59;;;13.95;46.60
68855;BME280;69984;-43.570;172.580;2023-10-09T11:19:19;99903.56;;;13.66;48.29
68855;BME280;69984;-43.570;172.580;2023-10-09T11:22:02;99913.78;;;13.90;46.34
68855;BME280;69984;-43.570;172.580;2023-10-09T11:24:32;99895.69;;;14.02;46.83
68855;BME280;69984;-43.570;172.580;2023-10-09T11:27:02;99899.78;;;13.90;46.08
68855;BME280;69984;-43.570;172.580;2023-10-09T11:29:36;99899.94;;;14.03;45.22
68855;BME280;69984;-43.570;172.580;2023-10-09T11:32:14;99902.75;;;13.66;46.54
68855;BME280;69984;-43.570;172.580;2023-10-09T11:34:48;99909.91;;;14.08;45.75
68855;BME280;69984;-43.570;172.580;2023-10-09T11:37:20;99902.88;;;13.93;46.32
68855;BME280;69984;-43.570;172.580;2023-10-09T11:39:57;99895.41;;;14.18;43.58
68855;BME280;69984;-43.570;172.580;2023-10-09T11:42:28;99897.13;;;14.26;43.51
68855;BME280;69984;-43.570;172.580;2023-10-09T11:45:25;99898.00;;;14.33;42.81
68855;BME280;69984;-43.570;172.580;2023-10-09T11:48:16;99907.34;;;14.57;42.41
68855;BME280;69984;-43.570;172.580;2023-10-09T11:51:03;99899.88;;;14.60;42.43
68855;BME280;69984;-43.570;172.580;2023-10-09T11:53:43;99899.22;;;14.52;42.64
68855;BME280;69984;-43.570;172.580;2023-10-09T11:56:30;99901.13;;;14.64;42.65
68855;BME280;69984;-43.570;172.580;2023-10-09T11:58:58;99897.44;;;14.59;42.64
68855;BME280;69984;-43.570;172.580;2023-10-09T12:01:31;99907.63;;;14.40;43.53
68855;BME280;69984;-43.570;172.580;2023-10-09T12:04:01;99908.84;;;14.38;43.31
68855;BME280;69984;-43.570;172.580;2023-10-09T12:06:28;99910.13;;;14.06;44.54
68855;BME280;69984;-43.570;172.580;2023-10-09T12:08:58;99910.81;;;13.79;45.98
68855;BME280;69984;-43.570;172.580;2023-10-09T12:11:25;99911.84;;;13.48;46.86
68855;BME280;69984;-43.570;172.580;2023-10-09T12:13:55;99906.88;;;13.24;47.04
68855;BME280;69984;-43.570;172.580;2023-10-09T12:16:24;99917.69;;;13.29;47.86
68855;BME280;69984;-43.570;172.580;2023-10-09T12:18:55;99905.44;;;12.84;49.43
68855;BME280;69984;-43.570;172.580;2023-10-09T12:21:22;99907.41;;;13.05;49.30
68855;BME280;69984;-43.570;172.580;2023-10-09T12:23:49;99912.75;;;12.97;49.20
68855;BME280;69984;-43.570;172.580;2023-10-09T12:26:17;99900.97;;;12.70;50.56
68855;BME280;69984;-43.570;172.580;2023-10-09T12:28:45;99900.06;;;12.63;51.65
68855;BME280;69984;-43.570;172.580;2023-10-09T12:31:17;99895.00;;;12.62;51.22
68855;BME280;69984;-43.570;172.580;2023-10-09T12:33:47;99906.81;;;12.43;53.52
68855;BME280;69984;-43.570;172.580;2023-10-09T12:36:16;99903.84;;;11.62;56.80
68855;BME280;69984;-43.570;172.580;2023-10-09T12:38:50;99898.97;;;11.50;57.66
68855;BME280;69984;-43.570;172.580;2023-10-09T12:41:19;99900.16;;;11.40;57.76
68855;BME280;69984;-43.570;172.580;2023-10-09T12:43:52;99904.34;;;11.18;58.21
68855;BME280;69984;-43.570;172.580;2023-10-09T12:46:19;99903.81;;;11.23;57.01
68855;BME280;69984;-43.570;172.580;2023-10-09T12:48:53;99900.22;;;11.16;56.21
68855;BME280;69984;-43.570;172.580;2023-10-09T12:51:24;99900.84;;;11.65;53.85
68855;BME280;69984;-43.570;172.580;2023-10-09T12:53:57;99900.56;;;11.98;52.44
68855;BME280;69984;-43.570;172.580;2023-10-09T12:56:29;99902.66;;;12.03;53.22
68855;BME280;69984;-43.570;172.580;2023-10-09T12:59:04;99897.75;;;12.00;53.03
68855;BME280;69984;-43.570;172.580;2023-10-09T13:01:34;99895.59;;;12.03;53.21
68855;BME280;69984;-43.570;172.580;2023-10-09T13:04:14;99889.66;;;12.10;52.70
68855;BME280;69984;-43.570;172.580;2023-10-09T13:06:45;99885.31;;;12.39;51.21
68855;BME280;69984;-43.570;172.580;2023-10-09T13:09:13;99880.72;;;12.41;50.48
68855;BME280;69984;-43.570;172.580;2023-10-09T13:11:43;99888.88;;;12.46;50.91
68855;BME280;69984;-43.570;172.580;2023-10-09T13:14:14;99900.50;;;12.52;50.88
68855;BME280;69984;-43.570;172.580;2023-10-09T13:16:48;99893.88;;;12.56;51.36
68855;BME280;69984;-43.570;172.580;2023-10-09T13:19:19;99902.00;;;12.46;51.75
68855;BME280;69984;-43.570;172.580;2023-10-09T13:21:46;99897.94;;;12.44;51.95
68855;BME280;69984;-43.570;172.580;2023-10-09T13:24:15;99890.09;;;12.36;51.75
68855;BME280;69984;-43.570;172.580;2023-10-09T13:26:45;99891.84;;;12.81;50.02